Time;durP1;ratioP1;P1;durP2;ratioP2;P2;SDS_P1;SDS_P2;PMS_P1;PMS_P2;Temp;Humidity;BMP_temperature;BMP_pressure;BME280_temperature;BME280_humidity;BME280_pressure;Samples;Min_cycle;Max_cycle;Signal;HPM_P1;HPM_P2
2022/05/07 00:01:10;;;;;;;3.67;1.65;;;;;;;23.71;21.48;100350.13;5153812;27;20117;-71
2022/05/07 00:03:36;;;;;;;4.88;2.80;;;;;;;23.72;21.58;100354.50;5152404;27;20692;-71
2022/05/07 00:06:01;;;;;;;7.90;2.00;;;;;;;23.73;21.62;100350.78;5135887;27;20026;-70
2022/05/07 00:08:27;;;;;;;3.15;1.80;;;;;;;23.74;21.70;100352.44;5150750;27;20388;-69
2022/05/07 00:10:52;;;;;;;9.13;2.05;;;;;;;23.73;21.43;100350.78;5135820;27;20469;-70
2022/05/07 00:13:18;;;;;;;2.58;1.70;;;;;;;23.70;21.32;100353.84;5135759;27;20027;-71
2022/05/07 00:18:01;;;;;;;6.35;1.80;;;;;;;23.58;21.65;100349.94;5129539;27;20130;-70
2022/05/07 00:18:29;;;;;;;3.47;1.85;;;;;;;23.42;21.43;100341.00;5153940;27;20027;-70
2022/05/07 00:20:55;;;;;;;4.10;1.65;;;;;;;23.29;21.56;100348.91;5156262;27;20037;-69
2022/05/07 00:23:20;;;;;;;4.45;2.00;;;;;;;23.16;21.79;100354.91;5156356;27;20026;-69
2022/05/07 00:25:46;;;;;;;6.50;1.83;;;;;;;23.00;21.91;100337.00;5156486;27;20038;-69
2022/05/07 00:28:11;;;;;;;3.45;1.58;;;;;;;22.90;21.96;100353.44;5155970;27;20401;-69
2022/05/07 00:30:36;;;;;;;3.85;1.88;;;;;;;22.80;21.92;100347.44;5156595;27;20035;-70
2022/05/07 00:33:02;;;;;;;3.42;1.77;;;;;;;22.68;21.97;100342.47;5155248;27;20038;-70
2022/05/07 00:35:27;;;;;;;2.55;1.65;;;;;;;22.60;22.02;100339.00;5156457;27;20038;-68
2022/05/07 00:37:53;;;;;;;7.18;1.80;;;;;;;22.55;21.93;100347.66;5142938;27;20109;-69
2022/05/07 00:40:18;;;;;;;2.40;1.63;;;;;;;22.48;21.80;100352.91;5155886;27;20034;-69
2022/05/07 00:42:44;;;;;;;3.75;2.03;;;;;;;22.43;22.13;100352.59;5154982;27;20026;-67
2022/05/07 00:45:09;;;;;;;5.53;1.83;;;;;;;22.36;22.03;100351.63;5156039;27;20533;-68
2022/05/07 00:47:35;;;;;;;3.67;1.77;;;;;;;22.27;22.19;100353.53;5154991;27;20069;-68
2022/05/07 00:52:47;;;;;;;3.08;1.88;;;;;;;22.15;22.22;100361.16;5155630;27;20504;-70
2022/05/07 00:55:14;;;;;;;2.17;1.65;;;;;;;22.10;22.39;100356.31;5155642;27;20058;-69
2022/05/07 00:57:40;;;;;;;3.72;2.17;;;;;;;22.05;22.33;100347.09;5155155;27;20121;-70
2022/05/07 01:00:06;;;;;;;3.55;2.10;;;;;;;22.03;22.43;100357.19;5155532;27;20536;-70
2022/05/07 01:02:32;;;;;;;3.58;1.83;;;;;;;21.97;22.38;100350.66;5155606;27;20030;-70
2022/05/07 01:04:58;;;;;;;3.65;1.65;;;;;;;21.92;22.58;100353.88;5155285;27;20059;-69
2022/05/07 01:07:24;;;;;;;6.22;2.30;;;;;;;21.91;22.47;100348.69;5154331;27;20129;-68
2022/05/07 01:09:49;;;;;;;3.35;1.90;;;;;;;21.86;22.53;100351.88;5145290;27;20047;-67
2022/05/07 01:12:16;;;;;;;2.67;1.40;;;;;;;21.83;22.62;100354.94;5146454;27;20504;-68
2022/05/07 01:14:41;;;;;;;2.88;1.65;;;;;;;21.78;22.61;100346.53;5155837;27;20031;-70
2022/05/07 01:17:08;;;;;;;7.63;1.90;;;;;;;21.78;22.70;100351.94;5154571;27;20038;-69
2022/05/07 01:19:33;;;;;;;3.97;1.58;;;;;;;21.73;22.72;100356.97;5155120;27;20042;-69
2022/05/07 01:22:00;;;;;;;6.65;2.13;;;;;;;21.71;22.71;100345.53;5154993;27;20033;-70
2022/05/07 01:24:25;;;;;;;5.97;2.00;;;;;;;21.66;22.65;100346.06;5155035;27;20125;-68
2022/05/07 01:26:51;;;;;;;3.10;2.08;;;;;;;21.60;22.88;100342.22;5154257;27;20118;-68
2022/05/07 01:29:16;;;;;;;4.15;1.83;;;;;;;21.59;22.95;100347.75;5155277;27;20469;-69
2022/05/07 01:31:42;;;;;;;2.58;1.83;;;;;;;21.56;22.81;100348.94;5155049;27;20027;-69
2022/05/07 01:34:07;;;;;;;5.70;1.88;;;;;;;21.51;22.94;100348.63;5138453;27;20431;-70
2022/05/07 01:36:33;;;;;;;4.00;1.85;;;;;;;21.50;22.78;100352.31;5147742;27;20030;-69
2022/05/07 01:38:58;;;;;;;4.00;2.00;;;;;;;21.47;23.00;100350.81;5154639;27;20427;-70
2022/05/07 01:41:24;;;;;;;4.35;1.95;;;;;;;21.45;22.89;100346.59;5154943;27;20030;-69
2022/05/07 01:43:49;;;;;;;4.72;1.77;;;;;;;21.44;23.15;100351.16;5154921;27;20034;-71
2022/05/07 01:48:59;;;;;;;4.53;1.73;;;;;;;21.37;23.29;100347.47;5138177;27;20080;-70
2022/05/07 01:51:25;;;;;;;4.15;1.80;;;;;;;21.37;23.25;100346.66;5154225;27;20060;-69
2022/05/07 01:53:51;;;;;;;2.17;1.67;;;;;;;21.37;23.31;100343.94;5154739;27;20113;-68
2022/05/07 01:56:16;;;;;;;4.10;1.80;;;;;;;21.34;23.21;100345.13;5155178;27;20515;-68
2022/05/07 01:58:41;;;;;;;3.35;2.08;;;;;;;21.32;23.28;100348.00;5153007;27;21345;-68
2022/05/07 02:01:10;;;;;;;2.95;1.60;;;;;;;21.31;23.17;100351.69;5154743;27;20041;-70
2022/05/07 02:03:37;;;;;;;2.75;1.63;;;;;;;21.30;23.22;100350.00;5153662;27;20038;-70
2022/05/07 02:06:02;;;;;;;3.03;2.03;;;;;;;21.29;23.32;100344.81;5154615;27;20071;-72
2022/05/07 02:08:28;;;;;;;3.25;1.85;;;;;;;21.27;23.08;100347.66;5135458;27;20489;-71
2022/05/07 02:10:54;;;;;;;5.05;1.40;;;;;;;21.25;23.26;100346.97;5154554;27;20102;-72
2022/05/07 02:13:19;;;;;;;3.80;2.28;;;;;;;21.25;23.15;100346.97;5153337;27;20030;-68
2022/05/07 02:15:45;;;;;;;4.95;1.98;;;;;;;21.24;23.35;100348.03;5153900;27;20405;-71
2022/05/07 02:18:10;;;;;;;6.43;2.05;;;;;;;21.25;23.33;100352.34;5152538;27;20054;-67
2022/05/07 02:20:36;;;;;;;3.05;2.20;;;;;;;21.23;23.44;100340.09;5154534;27;20439;-70
2022/05/07 02:23:01;;;;;;;3.75;1.65;;;;;;;21.20;23.41;100349.38;5153724;27;20041;-70
2022/05/07 02:25:27;;;;;;;3.20;2.10;;;;;;;21.20;23.23;100352.06;5153908;27;20507;-71
2022/05/07 02:27:53;;;;;;;3.42;2.17;;;;;;;21.16;23.33;100351.56;5145639;27;20080;-68
2022/05/07 02:30:19;;;;;;;7.97;2.17;;;;;;;21.16;23.45;100356.09;5133641;28;20043;-71
2022/05/07 02:32:48;;;;;;;2.90;1.77;;;;;;;21.15;23.45;100354.41;5133495;28;20042;-71
2022/05/07 02:35:13;;;;;;;4.00;1.92;;;;;;;21.15;23.49;100352.56;5133939;28;20047;-70
2022/05/07 02:37:39;;;;;;;3.03;1.90;;;;;;;21.12;23.40;100349.34;5137547;27;20031;-68
2022/05/07 02:40:05;;;;;;;6.40;2.40;;;;;;;21.15;23.62;100359.78;5144698;27;20047;-70
2022/05/07 02:42:34;;;;;;;2.60;1.90;;;;;;;21.15;23.29;100360.66;5141629;27;20026;-71
2022/05/07 02:45:01;;;;;;;4.72;2.10;;;;;;;21.14;23.54;100360.78;5153989;27;20054;-72
2022/05/07 02:47:28;;;;;;;6.15;2.30;;;;;;;21.13;23.52;100364.50;5153294;27;20031;-72
2022/05/07 02:49:54;;;;;;;2.80;1.75;;;;;;;21.13;23.43;100362.66;5153228;27;20078;-69
2022/05/07 02:52:19;;;;;;;5.43;2.50;;;;;;;21.13;23.50;100362.66;5136941;27;20023;-72
2022/05/07 02:54:45;;;;;;;4.70;1.95;;;;;;;21.12;23.50;100363.66;5154190;27;20121;-68
2022/05/07 02:57:10;;;;;;;4.70;2.00;;;;;;;21.11;23.63;100363.81;5153660;27;20061;-71
2022/05/07 02:59:38;;;;;;;2.85;1.70;;;;;;;21.10;23.79;100370.25;5153818;27;20088;-68
2022/05/07 03:02:05;;;;;;;3.28;1.90;;;;;;;21.11;23.74;100363.81;5139886;27;20126;-71
2022/05/07 03:04:30;;;;;;;6.68;2.05;;;;;;;21.11;23.77;100366.50;5154325;27;20045;-69
2022/05/07 03:06:56;;;;;;;3.00;1.80;;;;;;;21.11;23.78;100366.50;5152739;27;20026;-69
2022/05/07 03:09:21;;;;;;;3.20;1.90;;;;;;;21.13;23.76;100364.50;5153988;27;20117;-69
2022/05/07 03:11:47;;;;;;;2.72;1.77;;;;;;;21.14;23.87;100369.72;5153085;27;20126;-67
2022/05/07 03:14:12;;;;;;;3.42;2.15;;;;;;;21.16;23.66;100369.53;5154027;27;20039;-67
2022/05/07 03:16:38;;;;;;;9.55;2.00;;;;;;;21.12;23.82;100365.50;5150723;27;20034;-69
2022/05/07 03:19:07;;;;;;;3.88;1.75;;;;;;;21.16;23.82;100369.53;5132945;28;20628;-68
2022/05/07 03:21:33;;;;;;;5.43;2.05;;;;;;;21.18;23.73;100372.91;5133424;27;20034;-70
2022/05/07 03:23:58;;;;;;;4.22;1.80;;;;;;;21.19;23.72;100364.66;5132862;28;20031;-67
2022/05/07 03:26:24;;;;;;;3.63;2.25;;;;;;;21.21;23.79;100369.03;5135411;27;21954;-67
2022/05/07 03:28:50;;;;;;;3.95;2.13;;;;;;;21.21;23.74;100360.94;5156091;27;20046;-72
2022/05/07 03:31:19;;;;;;;8.32;2.78;;;;;;;21.25;23.79;100365.81;5140062;27;20042;-68
2022/05/07 03:33:46;;;;;;;4.13;2.42;;;;;;;21.28;23.57;100365.47;5154770;27;20043;-70
2022/05/07 03:36:12;;;;;;;5.47;2.13;;;;;;;21.31;23.62;100370.53;5157100;27;20507;-69
2022/05/07 03:38:38;;;;;;;3.03;2.13;;;;;;;21.36;23.57;100374.56;5157292;27;20070;-72
2022/05/07 03:41:04;;;;;;;4.80;1.98;;;;;;;21.39;23.74;100375.06;5143744;27;20118;-70
2022/05/07 03:43:30;;;;;;;3.85;1.92;;;;;;;21.44;23.67;100374.53;5152346;27;20439;-72
2022/05/07 03:45:55;;;;;;;3.78;2.00;;;;;;;21.52;23.52;100371.84;5156980;27;20042;-68
2022/05/07 03:48:21;;;;;;;3.38;2.17;;;;;;;21.63;23.56;100379.59;5156176;27;20041;-68
2022/05/07 03:50:46;;;;;;;5.78;2.38;;;;;;;21.80;23.40;100379.53;5155973;27;20120;-68
2022/05/07 03:53:30;;;;;;;3.78;2.25;;;;;;;21.95;23.23;100385.00;5156611;27;20042;-70
2022/05/07 03:56:14;;;;;;;2.88;1.90;;;;;;;22.11;23.06;100376.03;5156784;27;20500;-71
2022/05/07 03:58:40;;;;;;;5.28;2.33;;;;;;;22.16;23.01;100383.59;5156958;27;20487;-70
2022/05/07 04:01:08;;;;;;;6.07;2.00;;;;;;;22.18;22.83;100381.56;5155964;27;20041;-68
2022/05/07 04:03:34;;;;;;;4.22;2.40;;;;;;;22.19;23.10;100383.25;5144593;27;20105;-71
2022/05/07 04:05:59;;;;;;;7.22;2.45;;;;;;;22.20;22.95;100380.34;5153178;27;20568;-66
2022/05/07 04:08:25;;;;;;;4.50;2.33;;;;;;;22.18;23.04;100371.59;5156429;27;20122;-69
2022/05/07 04:10:51;;;;;;;3.55;2.17;;;;;;;22.20;23.06;100377.66;5156786;27;20113;-70
2022/05/07 04:13:16;;;;;;;7.53;2.22;;;;;;;22.20;23.02;100368.75;5154754;27;20477;-69
2022/05/07 04:15:43;;;;;;;9.18;2.42;;;;;;;22.23;22.96;100373.75;5156659;27;20049;-67
2022/05/07 04:18:09;;;;;;;4.57;2.10;;;;;;;22.25;22.98;100371.72;5144190;27;20035;-68
2022/05/07 04:20:35;;;;;;;3.85;2.70;;;;;;;22.32;22.99;100371.88;5135796;27;20065;-70
2022/05/07 04:23:01;;;;;;;5.15;2.60;;;;;;;22.40;22.88;100377.22;5135669;27;20027;-70
2022/05/07 04:25:26;;;;;;;5.32;2.08;;;;;;;22.45;22.81;100377.53;5135671;27;20401;-67
2022/05/07 04:27:53;;;;;;;5.55;2.28;;;;;;;22.46;22.70;100384.63;5141933;27;20030;-70
2022/05/07 04:30:20;;;;;;;5.95;2.05;;;;;;;22.45;22.76;100374.03;5156219;27;20046;-68
2022/05/07 04:32:45;;;;;;;4.90;2.65;;;;;;;22.43;22.91;100368.78;5155149;27;20042;-70
2022/05/07 04:35:11;;;;;;;7.72;2.33;;;;;;;22.57;22.78;100374.44;5156585;27;20042;-68
2022/05/07 04:37:36;;;;;;;6.40;2.40;;;;;;;22.77;22.53;100374.81;5153206;27;20450;-69
2022/05/07 04:40:02;;;;;;;6.20;2.85;;;;;;;23.01;22.59;100373.78;5145944;27;20117;-69
2022/05/07 04:42:27;;;;;;;4.68;2.85;;;;;;;23.25;22.26;100369.19;5155542;27;20083;-69
2022/05/07 04:44:53;;;;;;;4.82;2.53;;;;;;;23.46;22.18;100369.28;5156332;27;20450;-68
2022/05/07 04:47:18;;;;;;;5.72;2.53;;;;;;;23.65;21.91;100367.06;5154847;27;20039;-71
2022/05/07 04:49:44;;;;;;;6.43;2.97;;;;;;;23.83;21.84;100365.84;5155192;27;20121;-69
2022/05/07 04:52:10;;;;;;;6.30;3.28;;;;;;;24.00;21.55;100358.38;5155379;27;20031;-70
2022/05/07 04:54:36;;;;;;;3.92;2.45;;;;;;;24.21;21.74;100360.31;5156165;27;20103;-70
2022/05/07 04:57:02;;;;;;;7.10;2.90;;;;;;;24.43;21.15;100354.94;5154623;27;20065;-70
2022/05/07 04:59:28;;;;;;;5.65;2.38;;;;;;;24.60;21.42;100353.66;5147273;27;20038;-68
2022/05/07 05:01:54;;;;;;;5.72;2.33;;;;;;;24.78;21.66;100353.22;5149201;27;20095;-70
2022/05/07 05:04:19;;;;;;;4.53;2.55;;;;;;;24.95;21.10;100347.53;5136589;27;20462;-69
2022/05/07 05:06:45;;;;;;;5.72;2.28;;;;;;;25.09;21.04;100356.56;5154667;27;20070;-71
2022/05/07 05:09:12;;;;;;;8.75;2.45;;;;;;;25.21;21.24;100355.03;5149832;27;20030;-68
2022/05/07 05:11:38;;;;;;;6.70;2.90;;;;;;;25.33;21.18;100349.88;5141948;27;20587;-69
2022/05/07 05:15:01;;;;;;;10.40;2.53;;;;;;;25.44;21.29;100353.94;5135568;27;20039;-69
2022/05/07 05:16:50;;;;;;;9.45;2.92;;;;;;;25.51;20.93;100353.97;5135182;27;20485;-69
2022/05/07 05:19:17;;;;;;;8.43;2.47;;;;;;;25.61;21.28;100357.16;5154813;27;20035;-69
2022/05/07 05:21:42;;;;;;;4.20;2.33;;;;;;;25.66;21.03;100351.16;5155084;27;20121;-69
2022/05/07 05:24:08;;;;;;;5.38;2.17;;;;;;;25.72;20.86;100359.31;5154820;27;20076;-70
2022/05/07 05:26:34;;;;;;;6.90;2.10;;;;;;;25.77;21.14;100360.56;5154385;27;20038;-71
2022/05/07 05:28:59;;;;;;;4.90;2.10;;;;;;;25.83;20.95;100366.03;5146421;27;20393;-73
2022/05/07 05:31:25;;;;;;;3.97;2.22;;;;;;;25.86;20.91;100357.50;5140750;27;20057;-70
2022/05/07 05:33:50;;;;;;;5.15;2.25;;;;;;;25.90;20.82;100360.63;5143010;27;20363;-72
2022/05/07 05:36:16;;;;;;;5.10;2.20;;;;;;;25.96;21.08;100361.69;5137491;27;20034;-73
2022/05/07 05:38:41;;;;;;;7.90;2.58;;;;;;;25.98;20.90;100354.19;5154815;27;20091;-70
2022/05/07 05:41:07;;;;;;;6.00;2.28;;;;;;;26.03;21.09;100359.84;5150445;27;20034;-69
2022/05/07 05:43:32;;;;;;;4.45;2.63;;;;;;;26.04;20.75;100356.94;5150032;27;20023;-74
2022/05/07 05:45:58;;;;;;;8.07;2.60;;;;;;;26.09;20.92;100352.78;5154392;27;20087;-70
2022/05/07 05:48:28;;;;;;;7.78;1.95;;;;;;;26.10;21.49;100362.59;5137055;27;20046;-71
2022/05/07 05:50:54;;;;;;;3.40;2.03;;;;;;;26.13;21.47;100365.75;5149918;27;20127;-73
2022/05/07 05:53:20;;;;;;;3.63;1.70;;;;;;;26.16;21.65;100368.06;5150883;27;20023;-73
2022/05/07 05:55:47;;;;;;;3.10;1.73;;;;;;;26.21;21.69;100362.03;5149446;27;20026;-71
2022/05/07 05:58:12;;;;;;;11.25;3.65;;;;;;;26.23;21.68;100364.56;5144635;27;20087;-71
2022/05/07 06:00:38;;;;;;;9.50;3.72;;;;;;;26.22;21.82;100365.59;5145422;27;20042;-70
2022/05/07 06:03:04;;;;;;;25.98;4.72;;;;;;;26.19;21.63;100364.09;5151146;27;20027;-70
2022/05/07 06:05:29;;;;;;;12.43;4.47;;;;;;;26.17;21.73;100369.75;5151497;27;20042;-72
2022/05/07 06:07:54;;;;;;;10.10;3.85;;;;;;;26.14;21.48;100363.91;5152406;27;20062;-71
2022/05/07 06:10:20;;;;;;;8.68;3.83;;;;;;;26.12;21.66;100364.09;5153486;27;20034;-70
2022/05/07 06:12:45;;;;;;;9.10;3.95;;;;;;;26.13;21.42;100368.47;5143887;27;20030;-70
2022/05/07 06:15:12;;;;;;;19.23;5.18;;;;;;;26.12;21.29;100364.09;5140088;27;20030;-72
2022/05/07 06:17:37;;;;;;;14.82;6.60;;;;;;;26.13;21.84;100363.03;5148653;27;20033;-72
2022/05/07 06:20:04;;;;;;;14.93;5.03;;;;;;;26.13;21.71;100368.47;5152985;27;20113;-68
2022/05/07 06:22:29;;;;;;;11.88;4.75;;;;;;;26.11;21.73;100373.25;5144321;27;20034;-71
2022/05/07 06:27:39;;;;;;;13.93;6.30;;;;;;;26.08;22.38;100361.97;5145718;27;20037;-69
2022/05/07 06:30:06;;;;;;;14.73;5.38;;;;;;;26.11;22.48;100367.00;5154405;27;20038;-72
2022/05/07 06:32:36;;;;;;;16.50;5.95;;;;;;;26.10;22.61;100373.44;5149071;27;20370;-71
2022/05/07 06:35:06;;;;;;;17.50;4.88;;;;;;;26.09;22.30;100367.19;5140843;27;20035;-69
2022/05/07 06:37:34;;;;;;;13.10;5.32;;;;;;;26.10;22.42;100370.72;5150680;27;20442;-72
2022/05/07 06:40:00;;;;;;;8.98;3.67;;;;;;;26.13;22.53;100365.75;5146553;27;20027;-72
2022/05/07 06:42:25;;;;;;;14.40;4.50;;;;;;;26.14;22.47;100363.91;5154020;27;20023;-70
2022/05/07 06:44:51;;;;;;;5.43;3.58;;;;;;;26.14;22.10;100369.31;5150392;27;20076;-71
2022/05/07 06:47:16;;;;;;;10.57;3.80;;;;;;;26.15;22.59;100365.56;5146411;27;20034;-72
2022/05/07 06:49:43;;;;;;;8.52;3.08;;;;;;;26.18;22.69;100365.13;5145451;27;20086;-71
2022/05/07 06:52:09;;;;;;;8.50;3.55;;;;;;;26.19;22.87;100370.38;5150921;27;20050;-71
2022/05/07 06:54:34;;;;;;;7.43;3.65;;;;;;;26.18;23.00;100370.56;5133012;28;20027;-70
2022/05/07 06:57:00;;;;;;;10.75;4.00;;;;;;;26.19;23.04;100359.53;5150667;27;20037;-70
2022/05/07 06:59:26;;;;;;;7.38;2.97;;;;;;;26.22;22.62;100366.41;5153764;27;20031;-71
2022/05/07 07:01:51;;;;;;;9.43;2.78;;;;;;;26.24;22.35;100368.94;5154397;27;20062;-69
2022/05/07 07:04:17;;;;;;;7.88;3.88;;;;;;;26.23;22.35;100359.13;5152217;27;20026;-70
2022/05/07 07:06:42;;;;;;;6.97;3.30;;;;;;;26.22;22.52;100362.88;5155302;27;20038;-70
2022/05/07 07:09:08;;;;;;;8.98;3.10;;;;;;;26.23;22.32;100359.94;5157815;27;20043;-70
2022/05/07 07:11:34;;;;;;;5.72;2.50;;;;;;;26.24;22.05;100358.09;5157437;27;20110;-70
2022/05/07 07:14:02;;;;;;;6.28;2.45;;;;;;;26.23;21.86;100356.41;5157044;27;20038;-71
2022/05/07 07:16:31;;;;;;;4.63;2.05;;;;;;;26.24;21.78;100358.09;5156713;27;20042;-71
2022/05/07 07:18:56;;;;;;;4.50;2.33;;;;;;;26.23;21.76;100353.69;5156990;27;20057;-69
2022/05/07 07:21:22;;;;;;;6.75;2.15;;;;;;;26.24;21.66;100352.66;5156903;27;20481;-70
2022/05/07 07:23:48;;;;;;;7.50;2.55;;;;;;;26.22;21.99;100350.13;5156333;27;20034;-71
2022/05/07 07:26:14;;;;;;;3.85;2.10;;;;;;;26.21;21.85;100348.47;5157719;27;20031;-71
2022/05/07 07:28:40;;;;;;;4.88;2.38;;;;;;;26.24;21.99;100347.25;5157515;27;20439;-71
2022/05/07 07:31:06;;;;;;;4.35;1.90;;;;;;;26.26;21.78;100350.56;5157124;27;20083;-70
2022/05/07 07:33:31;;;;;;;6.00;2.30;;;;;;;26.25;21.78;100346.19;5155898;27;20083;-71
2022/05/07 07:35:57;;;;;;;5.25;2.20;;;;;;;26.26;21.92;100334.28;5136486;27;20520;-71
2022/05/07 07:38:23;;;;;;;4.05;2.00;;;;;;;26.26;21.54;100337.84;5136537;27;20039;-71
2022/05/07 07:40:51;;;;;;;3.65;1.73;;;;;;;26.27;21.80;100335.97;5136484;27;20091;-70
2022/05/07 07:43:18;;;;;;;5.93;2.33;;;;;;;26.27;21.71;100339.53;5151570;27;20481;-71
2022/05/07 07:48:27;;;;;;;4.97;1.55;;;;;;;26.26;21.63;100328.84;5138256;27;20042;-71
2022/05/07 07:50:53;;;;;;;8.30;2.15;;;;;;;26.27;21.54;100327.81;5131585;27;20142;-70
2022/05/07 07:53:22;;;;;;;6.63;2.22;;;;;;;26.26;21.60;100332.44;5137752;27;20657;-70
2022/05/07 07:55:48;;;;;;;4.13;1.95;;;;;;;26.30;21.32;100316.56;5155926;27;20094;-70
2022/05/07 07:58:13;;;;;;;4.85;1.80;;;;;;;26.28;21.12;100318.63;5156296;27;20481;-71
2022/05/07 08:00:41;;;;;;;7.03;2.03;;;;;;;26.29;21.02;100323.03;5156875;27;20082;-71
2022/05/07 08:03:24;;;;;;;3.55;2.00;;;;;;;26.29;20.96;100328.44;5156268;27;20370;-73
2022/05/07 08:05:52;;;;;;;2.67;1.70;;;;;;;26.28;20.91;100316.78;5147587;27;20023;-71
2022/05/07 08:13:48;;;;;;;5.25;1.48;;;;;;;26.23;20.82;100303.00;5155874;27;20165;-71
2022/05/07 08:16:17;;;;;;;5.47;1.90;;;;;;;26.26;20.87;100307.16;5156230;27;20033;-70
2022/05/07 08:18:43;;;;;;;4.30;1.80;;;;;;;26.26;20.73;100313.44;5149976;27;20397;-71
2022/05/07 08:21:10;;;;;;;5.95;1.63;;;;;;;26.27;20.64;100298.84;5155439;27;20030;-70
2022/05/07 08:23:36;;;;;;;4.00;1.90;;;;;;;26.27;20.79;100304.25;5155973;27;20031;-71
2022/05/07 08:26:06;;;;;;;3.30;2.38;;;;;;;26.27;20.54;100298.84;5156553;27;20500;-70
2022/05/07 08:28:32;;;;;;;3.33;1.70;;;;;;;26.26;20.71;100297.16;5154211;27;20121;-69
2022/05/07 08:30:58;;;;;;;4.93;1.55;;;;;;;26.28;20.66;100289.66;5149937;27;20480;-70
2022/05/07 08:33:24;;;;;;;7.25;1.17;;;;;;;26.27;20.89;100297.97;5154909;27;20512;-70
2022/05/07 08:35:50;;;;;;;3.28;1.63;;;;;;;26.29;20.81;100299.47;5155997;27;20031;-70
2022/05/07 08:38:15;;;;;;;4.60;1.67;;;;;;;26.30;20.85;100294.88;5155216;27;20041;-71
2022/05/07 08:40:41;;;;;;;2.25;1.55;;;;;;;26.31;20.90;100285.69;5155865;27;20034;-71
2022/05/07 08:43:07;;;;;;;5.90;1.80;;;;;;;26.32;21.00;100293.59;5154871;27;20027;-69
2022/05/07 08:45:35;;;;;;;2.65;1.48;;;;;;;26.34;21.06;100293.41;5141486;27;20035;-71
2022/05/07 08:48:01;;;;;;;4.70;1.98;;;;;;;26.34;20.71;100283.38;5135223;27;20027;-71
2022/05/07 08:50:26;;;;;;;5.43;1.80;;;;;;;26.36;20.83;100285.91;5139414;27;20034;-71
2022/05/07 08:52:56;;;;;;;3.10;1.73;;;;;;;26.34;20.79;100277.13;5154181;27;20031;-70
2022/05/07 08:55:22;;;;;;;9.52;2.78;;;;;;;26.38;20.92;100280.25;5155287;27;20046;-71
2022/05/07 08:57:50;;;;;;;4.57;1.80;;;;;;;26.38;20.82;100278.41;5155789;27;20035;-71
2022/05/07 09:00:21;;;;;;;6.55;2.03;;;;;;;26.39;20.55;100280.06;5155424;27;20094;-70
2022/05/07 09:02:49;;;;;;;5.95;2.03;;;;;;;26.39;20.93;100284.66;5155464;27;20450;-71
2022/05/07 09:05:19;;;;;;;7.70;2.28;;;;;;;26.39;20.62;100277.38;5155114;27;20114;-70
2022/05/07 09:07:59;;;;;;;5.70;2.08;;;;;;;26.38;20.52;100272.97;5154798;27;20524;-70
2022/05/07 09:10:29;;;;;;;3.85;2.03;;;;;;;26.38;20.41;100270.25;5155298;27;20145;-71
2022/05/07 09:13:17;;;;;;;7.95;2.03;;;;;;;26.37;20.49;100275.88;5154739;27;20042;-70
2022/05/07 09:15:49;;;;;;;5.97;2.33;;;;;;;26.40;20.58;100268.16;5153847;27;20036;-71
2022/05/07 09:18:17;;;;;;;7.97;2.67;;;;;;;26.37;20.53;100270.44;5154962;27;20030;-73
2022/05/07 09:20:42;;;;;;;5.88;2.10;;;;;;;26.44;20.87;100260.47;5155026;27;20423;-71
2022/05/07 09:23:10;;;;;;;8.80;3.47;;;;;;;26.45;20.71;100262.13;5155252;27;20041;-71
2022/05/07 09:25:44;;;;;;;6.35;1.65;;;;;;;26.47;20.51;100260.88;5154902;27;20033;-70
2022/05/07 09:28:10;;;;;;;13.40;2.60;;;;;;;26.48;20.53;100256.25;5155106;27;20036;-71
2022/05/07 09:30:36;;;;;;;3.45;1.88;;;;;;;26.50;20.61;100254.19;5154612;27;20384;-71
2022/05/07 09:33:01;;;;;;;4.75;2.50;;;;;;;26.49;20.53;100253.34;5154569;27;20094;-71
2022/05/07 09:38:14;;;;;;;3.60;2.03;;;;;;;26.49;20.79;100252.50;5155272;27;20041;-71
2022/05/07 09:40:41;;;;;;;3.70;2.10;;;;;;;26.52;20.88;100243.13;5154765;27;20027;-71
2022/05/07 09:43:11;;;;;;;6.47;2.13;;;;;;;26.52;21.08;100240.41;5154493;27;20489;-71
2022/05/07 09:45:39;;;;;;;5.30;2.03;;;;;;;26.51;20.90;100242.28;5154669;27;20030;-70
2022/05/07 09:48:08;;;;;;;4.40;2.13;;;;;;;26.52;20.68;100243.13;5135476;27;20378;-71
2022/05/07 09:58:46;;;;;;;3.15;2.10;;;;;;;26.56;20.86;100231.66;5153631;27;20060;-70
2022/05/07 10:01:21;;;;;;;5.13;1.85;;;;;;;26.58;21.05;100234.13;5154650;27;20023;-72
2022/05/07 10:04:14;;;;;;;6.68;2.60;;;;;;;26.59;20.96;100235.81;5154866;27;20031;-69
2022/05/07 10:07:02;;;;;;;2.95;1.90;;;;;;;26.60;21.47;100238.34;5154440;27;20026;-71
2022/05/07 10:09:56;;;;;;;7.10;2.20;;;;;;;26.60;21.15;100232.91;5150442;27;20037;-70
2022/05/07 10:12:23;;;;;;;5.15;1.85;;;;;;;26.61;21.03;100231.00;5133293;27;20481;-71
2022/05/07 10:14:49;;;;;;;6.00;1.80;;;;;;;26.63;21.04;100231.63;5138958;27;20435;-70
2022/05/07 10:17:16;;;;;;;5.72;1.60;;;;;;;26.64;20.86;100225.16;5145236;27;20046;-70
2022/05/07 10:19:45;;;;;;;5.47;1.60;;;;;;;26.64;20.58;100219.75;5154043;27;20481;-70
2022/05/07 10:22:16;;;;;;;5.03;1.58;;;;;;;26.65;20.58;100215.97;5153166;27;20031;-70
2022/05/07 10:24:42;;;;;;;2.58;1.52;;;;;;;26.63;20.63;100212.63;5153243;27;20058;-70
2022/05/07 10:27:19;;;;;;;2.78;1.55;;;;;;;26.64;20.85;100207.00;5153873;27;20400;-71
2022/05/07 10:29:44;;;;;;;5.10;1.50;;;;;;;26.69;20.62;100225.34;5153868;27;20026;-70
2022/05/07 10:32:11;;;;;;;2.95;1.60;;;;;;;26.68;20.60;100217.44;5153322;27;20030;-71
2022/05/07 10:34:37;;;;;;;2.85;1.60;;;;;;;26.66;20.36;100210.34;5153957;27;20455;-71
2022/05/07 10:37:04;;;;;;;2.55;1.48;;;;;;;26.68;20.45;100206.56;5156348;27;20101;-71
2022/05/07 10:39:31;;;;;;;2.15;1.65;;;;;;;26.68;20.58;100210.13;5158764;27;20026;-70
2022/05/07 10:41:57;;;;;;;2.60;1.42;;;;;;;26.70;20.81;100204.50;5157730;27;20031;-71
2022/05/07 10:44:30;;;;;;;4.82;1.55;;;;;;;26.72;20.68;100202.41;5158824;27;20027;-71
2022/05/07 10:47:07;;;;;;;4.47;1.70;;;;;;;26.72;20.77;100186.94;5156651;27;20038;-71
2022/05/07 10:49:32;;;;;;;5.30;1.38;;;;;;;26.74;21.02;100194.88;5158445;27;20030;-71
2022/05/07 10:52:03;;;;;;;4.22;1.50;;;;;;;26.75;21.09;100191.13;5157631;27;20055;-72
2022/05/07 10:54:29;;;;;;;3.25;1.15;;;;;;;26.74;21.02;100193.00;5158151;27;20456;-72
2022/05/07 10:56:58;;;;;;;3.63;1.48;;;;;;;26.78;21.02;100182.53;5157477;27;20129;-72
2022/05/07 10:59:27;;;;;;;5.35;1.50;;;;;;;26.78;20.95;100180.66;5156947;27;20035;-71
2022/05/07 11:02:08;;;;;;;3.97;1.50;;;;;;;26.81;21.34;100171.28;5157665;27;20031;-71
2022/05/07 11:04:44;;;;;;;3.80;1.13;;;;;;;26.82;21.20;100180.28;5158011;27;20027;-71
2022/05/07 11:07:10;;;;;;;5.10;1.27;;;;;;;26.83;21.18;100176.53;5156798;27;20087;-70
2022/05/07 11:09:37;;;;;;;2.60;1.30;;;;;;;26.83;21.10;100171.91;5155083;27;20448;-70
2022/05/07 11:12:02;;;;;;;3.28;1.27;;;;;;;26.85;21.11;100168.97;5136895;27;20038;-71
2022/05/07 11:14:30;;;;;;;3.05;1.73;;;;;;;26.86;21.18;100168.78;5137117;27;20031;-71
2022/05/07 11:16:57;;;;;;;3.38;1.30;;;;;;;26.86;21.33;100167.94;5139481;27;20487;-71
2022/05/07 11:19:27;;;;;;;3.90;1.40;;;;;;;26.87;21.13;100162.31;5157149;27;20034;-71
2022/05/07 11:21:53;;;;;;;2.55;1.63;;;;;;;26.88;21.09;100160.41;5157042;27;20030;-71
2022/05/07 11:24:20;;;;;;;4.53;1.75;;;;;;;26.89;21.28;100143.91;5156358;27;20030;-72
2022/05/07 11:27:06;;;;;;;1.60;1.17;;;;;;;26.89;21.32;100152.06;5153911;27;20030;-72
2022/05/07 11:29:33;;;;;;;3.45;1.40;;;;;;;26.88;21.45;100147.69;5136869;27;20097;-71
2022/05/07 11:32:07;;;;;;;2.15;1.30;;;;;;;26.91;21.28;100138.25;5136597;27;20539;-70
2022/05/07 11:34:33;;;;;;;1.92;1.13;;;;;;;26.90;21.26;100145.59;5139841;27;20038;-71
2022/05/07 11:37:22;;;;;;;4.70;1.65;;;;;;;26.92;21.25;100135.31;5151122;27;20087;-71
2022/05/07 11:39:58;;;;;;;4.88;1.73;;;;;;;26.90;21.24;100132.00;5156809;27;20493;-71
2022/05/07 11:42:32;;;;;;;3.83;1.30;;;;;;;26.90;21.26;100136.59;5156962;27;20019;-71
2022/05/07 11:48:17;;;;;;;6.47;2.00;;;;;;;26.91;21.02;100135.56;5155671;27;20079;-71
2022/05/07 11:50:57;;;;;;;2.10;1.55;;;;;;;26.89;21.16;100126.78;5135675;27;20034;-71
2022/05/07 11:53:27;;;;;;;2.72;1.27;;;;;;;26.83;21.10;100120.31;5136128;27;20027;-71
2022/05/07 11:56:05;;;;;;;2.60;1.45;;;;;;;26.73;21.15;100122.63;5136227;27;20030;-71